sensor_id;sensor_type;location;lat;lon;timestamp;pressure;altitude;pressure_sealevel;temperature
20092;BMP180;10205;49.678;6.560;2023-07-28T00:01:18;99127.00;;;22.10
20092;BMP180;10205;49.678;6.560;2023-07-28T00:03:45;99125.00;;;22.10
20092;BMP180;10205;49.678;6.560;2023-07-28T00:06:14;99122.00;;;22.10
20092;BMP180;10205;49.678;6.560;2023-07-28T00:08:41;99120.00;;;22.10
20092;BMP180;10205;49.678;6.560;2023-07-28T00:11:10;99122.00;;;22.10
20092;BMP180;10205;49.678;6.560;2023-07-28T00:13:38;99122.00;;;22.10
20092;BMP180;10205;49.678;6.560;2023-07-28T00:16:06;99113.00;;;22.10
20092;BMP180;10205;49.678;6.560;2023-07-28T00:18:33;99123.00;;;22.10
20092;BMP180;10205;49.678;6.560;2023-07-28T00:21:01;99128.00;;;22.10
20092;BMP180;10205;49.678;6.560;2023-07-28T00:23:29;99121.00;;;22.10
20092;BMP180;10205;49.678;6.560;2023-07-28T00:25:57;99115.00;;;22.10
20092;BMP180;10205;49.678;6.560;2023-07-28T00:28:24;99120.00;;;22.10
20092;BMP180;10205;49.678;6.560;2023-07-28T00:30:51;99112.00;;;22.10
20092;BMP180;10205;49.678;6.560;2023-07-28T00:33:19;99110.00;;;22.10
20092;BMP180;10205;49.678;6.560;2023-07-28T00:35:46;99101.00;;;22.10
20092;BMP180;10205;49.678;6.560;2023-07-28T00:38:13;99096.00;;;22.10
20092;BMP180;10205;49.678;6.560;2023-07-28T00:40:42;99108.00;;;22.10
20092;BMP180;10205;49.678;6.560;2023-07-28T00:43:09;99100.00;;;22.00
20092;BMP180;10205;49.678;6.560;2023-07-28T00:45:36;99093.00;;;22.00
20092;BMP180;10205;49.678;6.560;2023-07-28T00:48:11;99091.00;;;22.00
20092;BMP180;10205;49.678;6.560;2023-07-28T00:50:40;99086.00;;;22.00
20092;BMP180;10205;49.678;6.560;2023-07-28T00:53:08;99090.00;;;22.00
20092;BMP180;10205;49.678;6.560;2023-07-28T00:55:35;99092.00;;;22.00
20092;BMP180;10205;49.678;6.560;2023-07-28T00:58:04;99090.00;;;22.00
20092;BMP180;10205;49.678;6.560;2023-07-28T01:00:31;99091.00;;;21.90
20092;BMP180;10205;49.678;6.560;2023-07-28T01:02:59;99088.00;;;21.90
20092;BMP180;10205;49.678;6.560;2023-07-28T01:05:36;99095.00;;;21.90
20092;BMP180;10205;49.678;6.560;2023-07-28T01:08:12;99093.00;;;21.90
20092;BMP180;10205;49.678;6.560;2023-07-28T01:10:42;99089.00;;;21.90
20092;BMP180;10205;49.678;6.560;2023-07-28T01:13:11;99093.00;;;21.90
20092;BMP180;10205;49.678;6.560;2023-07-28T01:15:38;99087.00;;;21.90
20092;BMP180;10205;49.678;6.560;2023-07-28T01:18:05;99087.00;;;21.90
20092;BMP180;10205;49.678;6.560;2023-07-28T01:20:37;99090.00;;;21.90
20092;BMP180;10205;49.678;6.560;2023-07-28T01:23:13;99096.00;;;21.80
20092;BMP180;10205;49.678;6.560;2023-07-28T01:25:53;99097.00;;;21.90
20092;BMP180;10205;49.678;6.560;2023-07-28T01:28:24;99102.00;;;21.80
20092;BMP180;10205;49.678;6.560;2023-07-28T01:30:52;99105.00;;;21.80
20092;BMP180;10205;49.678;6.560;2023-07-28T01:33:20;99096.00;;;21.80
20092;BMP180;10205;49.678;6.560;2023-07-28T01:35:47;99089.00;;;21.80
20092;BMP180;10205;49.678;6.560;2023-07-28T01:38:14;99081.00;;;21.80
20092;BMP180;10205;49.678;6.560;2023-07-28T01:40:42;99091.00;;;21.80
20092;BMP180;10205;49.678;6.560;2023-07-28T01:43:09;99095.00;;;21.80
20092;BMP180;10205;49.678;6.560;2023-07-28T01:45:38;99090.00;;;21.80
20092;BMP180;10205;49.678;6.560;2023-07-28T01:48:05;99096.00;;;21.80
20092;BMP180;10205;49.678;6.560;2023-07-28T01:50:34;99092.00;;;21.80
20092;BMP180;10205;49.678;6.560;2023-07-28T01:53:01;99082.00;;;21.80
20092;BMP180;10205;49.678;6.560;2023-07-28T01:55:29;99098.00;;;21.80
20092;BMP180;10205;49.678;6.560;2023-07-28T01:57:58;99100.00;;;21.80
20092;BMP180;10205;49.678;6.560;2023-07-28T02:00:26;99093.00;;;21.80
20092;BMP180;10205;49.678;6.560;2023-07-28T02:02:55;99094.00;;;21.80
20092;BMP180;10205;49.678;6.560;2023-07-28T02:05:24;99096.00;;;21.80
20092;BMP180;10205;49.678;6.560;2023-07-28T02:07:51;99101.00;;;21.80
20092;BMP180;10205;49.678;6.560;2023-07-28T02:10:19;99101.00;;;21.80
20092;BMP180;10205;49.678;6.560;2023-07-28T02:12:46;99102.00;;;21.80
20092;BMP180;10205;49.678;6.560;2023-07-28T02:15:14;99097.00;;;21.80
20092;BMP180;10205;49.678;6.560;2023-07-28T02:17:41;99102.00;;;21.80
20092;BMP180;10205;49.678;6.560;2023-07-28T02:20:10;99101.00;;;21.80
20092;BMP180;10205;49.678;6.560;2023-07-28T02:22:39;99099.00;;;21.80
20092;BMP180;10205;49.678;6.560;2023-07-28T02:25:07;99103.00;;;21.80
20092;BMP180;10205;49.678;6.560;2023-07-28T02:27:34;99102.00;;;21.80
20092;BMP180;10205;49.678;6.560;2023-07-28T02:30:02;99094.00;;;21.80
20092;BMP180;10205;49.678;6.560;2023-07-28T02:32:30;99100.00;;;21.70
20092;BMP180;10205;49.678;6.560;2023-07-28T02:34:58;99091.00;;;21.70
20092;BMP180;10205;49.678;6.560;2023-07-28T02:37:26;99101.00;;;21.70
20092;BMP180;10205;49.678;6.560;2023-07-28T02:39:54;99100.00;;;21.70
20092;BMP180;10205;49.678;6.560;2023-07-28T02:42:21;99098.00;;;21.70
20092;BMP180;10205;49.678;6.560;2023-07-28T02:44:49;99093.00;;;21.70
20092;BMP180;10205;49.678;6.560;2023-07-28T02:47:17;99102.00;;;21.70
20092;BMP180;10205;49.678;6.560;2023-07-28T02:49:44;99104.00;;;21.70
20092;BMP180;10205;49.678;6.560;2023-07-28T02:52:12;99105.00;;;21.70
20092;BMP180;10205;49.678;6.560;2023-07-28T02:54:40;99105.00;;;21.70
20092;BMP180;10205;49.678;6.560;2023-07-28T02:57:08;99108.00;;;21.70
20092;BMP180;10205;49.678;6.560;2023-07-28T02:59:35;99108.00;;;21.80
20092;BMP180;10205;49.678;6.560;2023-07-28T03:02:02;99104.00;;;21.70
20092;BMP180;10205;49.678;6.560;2023-07-28T03:04:30;99104.00;;;21.80
20092;BMP180;10205;49.678;6.560;2023-07-28T03:06:57;99103.00;;;21.80
20092;BMP180;10205;49.678;6.560;2023-07-28T03:09:24;99109.00;;;21.80
20092;BMP180;10205;49.678;6.560;2023-07-28T03:11:53;99104.00;;;21.80
20092;BMP180;10205;49.678;6.560;2023-07-28T03:14:20;99103.00;;;21.80
20092;BMP180;10205;49.678;6.560;2023-07-28T03:16:47;99110.00;;;21.80
20092;BMP180;10205;49.678;6.560;2023-07-28T03:19:15;99119.00;;;21.80
20092;BMP180;10205;49.678;6.560;2023-07-28T03:21:43;99118.00;;;21.80
20092;BMP180;10205;49.678;6.560;2023-07-28T03:24:10;99120.00;;;21.80
20092;BMP180;10205;49.678;6.560;2023-07-28T03:26:38;99125.00;;;21.80
20092;BMP180;10205;49.678;6.560;2023-07-28T03:29:06;99127.00;;;21.80
20092;BMP180;10205;49.678;6.560;2023-07-28T03:31:34;99127.00;;;21.80
20092;BMP180;10205;49.678;6.560;2023-07-28T03:34:02;99123.00;;;21.80
20092;BMP180;10205;49.678;6.560;2023-07-28T03:36:29;99129.00;;;21.80
20092;BMP180;10205;49.678;6.560;2023-07-28T03:38:56;99127.00;;;21.80
20092;BMP180;10205;49.678;6.560;2023-07-28T03:41:24;99124.00;;;21.80
20092;BMP180;10205;49.678;6.560;2023-07-28T03:43:51;99136.00;;;21.80
20092;BMP180;10205;49.678;6.560;2023-07-28T03:46:20;99131.00;;;21.80
20092;BMP180;10205;49.678;6.560;2023-07-28T03:48:47;99123.00;;;21.80
20092;BMP180;10205;49.678;6.560;2023-07-28T03:51:14;99131.00;;;21.80
20092;BMP180;10205;49.678;6.560;2023-07-28T03:53:42;99130.00;;;21.80
20092;BMP180;10205;49.678;6.560;2023-07-28T03:56:09;99138.00;;;21.80
20092;BMP180;10205;49.678;6.560;2023-07-28T03:58:36;99127.00;;;21.80
20092;BMP180;10205;49.678;6.560;2023-07-28T04:01:03;99127.00;;;21.80
20092;BMP180;10205;49.678;6.560;2023-07-28T04:03:35;99127.00;;;21.80
20092;BMP180;10205;49.678;6.560;2023-07-28T04:06:05;99134.00;;;21.80
20092;BMP180;10205;49.678;6.560;2023-07-28T04:08:32;99136.00;;;21.70
20092;BMP180;10205;49.678;6.560;2023-07-28T04:11:00;99136.00;;;21.70
20092;BMP180;10205;49.678;6.560;2023-07-28T04:13:27;99143.00;;;21.70
20092;BMP180;10205;49.678;6.560;2023-07-28T04:15:54;99134.00;;;21.70
20092;BMP180;10205;49.678;6.560;2023-07-28T04:18:21;99125.00;;;21.70
20092;BMP180;10205;49.678;6.560;2023-07-28T04:20:50;99136.00;;;21.70
20092;BMP180;10205;49.678;6.560;2023-07-28T04:23:18;99140.00;;;21.70
20092;BMP180;10205;49.678;6.560;2023-07-28T04:25:45;99140.00;;;21.70
20092;BMP180;10205;49.678;6.560;2023-07-28T04:28:12;99142.00;;;21.70
20092;BMP180;10205;49.678;6.560;2023-07-28T04:30:39;99149.00;;;21.70
20092;BMP180;10205;49.678;6.560;2023-07-28T04:33:07;99145.00;;;21.60
20092;BMP180;10205;49.678;6.560;2023-07-28T04:35:34;99147.00;;;21.60
20092;BMP180;10205;49.678;6.560;2023-07-28T04:38:04;99147.00;;;21.70
20092;BMP180;10205;49.678;6.560;2023-07-28T04:40:31;99144.00;;;21.60
20092;BMP180;10205;49.678;6.560;2023-07-28T04:42:58;99141.00;;;21.60
20092;BMP180;10205;49.678;6.560;2023-07-28T04:45:25;99144.00;;;21.60
20092;BMP180;10205;49.678;6.560;2023-07-28T04:47:53;99153.00;;;21.60
20092;BMP180;10205;49.678;6.560;2023-07-28T04:50:20;99148.00;;;21.60
20092;BMP180;10205;49.678;6.560;2023-07-28T04:52:48;99150.00;;;21.70
20092;BMP180;10205;49.678;6.560;2023-07-28T04:55:16;99155.00;;;21.70
20092;BMP180;10205;49.678;6.560;2023-07-28T04:57:44;99151.00;;;21.60
20092;BMP180;10205;49.678;6.560;2023-07-28T05:00:13;99147.00;;;21.60
20092;BMP180;10205;49.678;6.560;2023-07-28T05:02:40;99151.00;;;21.60
20092;BMP180;10205;49.678;6.560;2023-07-28T05:05:08;99152.00;;;21.60
20092;BMP180;10205;49.678;6.560;2023-07-28T05:07:35;99148.00;;;21.60
20092;BMP180;10205;49.678;6.560;2023-07-28T05:10:03;99156.00;;;21.60
20092;BMP180;10205;49.678;6.560;2023-07-28T05:12:31;99159.00;;;21.70
20092;BMP180;10205;49.678;6.560;2023-07-28T05:14:59;99149.00;;;21.60
20092;BMP180;10205;49.678;6.560;2023-07-28T05:17:26;99156.00;;;21.60
20092;BMP180;10205;49.678;6.560;2023-07-28T05:19:54;99157.00;;;21.60
20092;BMP180;10205;49.678;6.560;2023-07-28T05:22:21;99156.00;;;21.60
20092;BMP180;10205;49.678;6.560;2023-07-28T05:24:48;99149.00;;;21.60
20092;BMP180;10205;49.678;6.560;2023-07-28T05:27:15;99157.00;;;21.60
20092;BMP180;10205;49.678;6.560;2023-07-28T05:29:44;99152.00;;;21.60
20092;BMP180;10205;49.678;6.560;2023-07-28T05:32:11;99157.00;;;21.60
20092;BMP180;10205;49.678;6.560;2023-07-28T05:34:42;99159.00;;;21.60
20092;BMP180;10205;49.678;6.560;2023-07-28T05:37:10;99162.00;;;21.60
20092;BMP180;10205;49.678;6.560;2023-07-28T05:39:37;99159.00;;;21.60
20092;BMP180;10205;49.678;6.560;2023-07-28T05:42:05;99156.00;;;21.60
20092;BMP180;10205;49.678;6.560;2023-07-28T05:44:34;99165.00;;;21.70
20092;BMP180;10205;49.678;6.560;2023-07-28T05:47:02;99170.00;;;21.70
20092;BMP180;10205;49.678;6.560;2023-07-28T05:49:30;99179.00;;;21.70
20092;BMP180;10205;49.678;6.560;2023-07-28T05:51:58;99171.00;;;21.70
20092;BMP180;10205;49.678;6.560;2023-07-28T05:54:25;99173.00;;;21.70
20092;BMP180;10205;49.678;6.560;2023-07-28T05:56:52;99174.00;;;21.70
20092;BMP180;10205;49.678;6.560;2023-07-28T05:59:19;99181.00;;;21.70
20092;BMP180;10205;49.678;6.560;2023-07-28T06:01:47;99181.00;;;21.70
20092;BMP180;10205;49.678;6.560;2023-07-28T06:04:16;99187.00;;;21.70
20092;BMP180;10205;49.678;6.560;2023-07-28T06:06:44;99191.00;;;21.70
20092;BMP180;10205;49.678;6.560;2023-07-28T06:09:11;99189.00;;;21.70
20092;BMP180;10205;49.678;6.560;2023-07-28T06:11:38;99193.00;;;21.70
20092;BMP180;10205;49.678;6.560;2023-07-28T06:14:05;99189.00;;;21.70
20092;BMP180;10205;49.678;6.560;2023-07-28T06:16:33;99192.00;;;21.70
20092;BMP180;10205;49.678;6.560;2023-07-28T06:19:00;99188.00;;;21.70
20092;BMP180;10205;49.678;6.560;2023-07-28T06:21:29;99190.00;;;21.70
20092;BMP180;10205;49.678;6.560;2023-07-28T06:23:56;99197.00;;;21.70
20092;BMP180;10205;49.678;6.560;2023-07-28T06:26:24;99199.00;;;21.70
20092;BMP180;10205;49.678;6.560;2023-07-28T06:28:51;99195.00;;;21.70
20092;BMP180;10205;49.678;6.560;2023-07-28T06:31:18;99193.00;;;21.70
20092;BMP180;10205;49.678;6.560;2023-07-28T06:33:47;99188.00;;;21.70
20092;BMP180;10205;49.678;6.560;2023-07-28T06:36:14;99199.00;;;21.70
20092;BMP180;10205;49.678;6.560;2023-07-28T06:38:45;99197.00;;;21.70
20092;BMP180;10205;49.678;6.560;2023-07-28T06:41:14;99194.00;;;21.70
20092;BMP180;10205;49.678;6.560;2023-07-28T06:43:41;99196.00;;;21.70
20092;BMP180;10205;49.678;6.560;2023-07-28T06:46:09;99200.00;;;21.70
20092;BMP180;10205;49.678;6.560;2023-07-28T06:48:36;99210.00;;;21.70
20092;BMP180;10205;49.678;6.560;2023-07-28T06:51:03;99207.00;;;21.80
20092;BMP180;10205;49.678;6.560;2023-07-28T06:53:30;99216.00;;;21.80
20092;BMP180;10205;49.678;6.560;2023-07-28T06:55:59;99219.00;;;21.80
20092;BMP180;10205;49.678;6.560;2023-07-28T06:58:26;99210.00;;;21.80
20092;BMP180;10205;49.678;6.560;2023-07-28T07:00:53;99213.00;;;21.80
20092;BMP180;10205;49.678;6.560;2023-07-28T07:03:21;99220.00;;;21.90
20092;BMP180;10205;49.678;6.560;2023-07-28T07:05:49;99220.00;;;21.90
20092;BMP180;10205;49.678;6.560;2023-07-28T07:08:17;99218.00;;;21.90
20092;BMP180;10205;49.678;6.560;2023-07-28T07:10:48;99230.00;;;21.90
20092;BMP180;10205;49.678;6.560;2023-07-28T07:13:17;99226.00;;;22.00
20092;BMP180;10205;49.678;6.560;2023-07-28T07:15:44;99223.00;;;22.00
20092;BMP180;10205;49.678;6.560;2023-07-28T07:18:12;99221.00;;;22.00
20092;BMP180;10205;49.678;6.560;2023-07-28T07:20:39;99230.00;;;22.00
20092;BMP180;10205;49.678;6.560;2023-07-28T07:23:07;99228.00;;;22.00
20092;BMP180;10205;49.678;6.560;2023-07-28T07:25:34;99231.00;;;22.10
20092;BMP180;10205;49.678;6.560;2023-07-28T07:28:02;99229.00;;;22.10
20092;BMP180;10205;49.678;6.560;2023-07-28T07:30:32;99237.00;;;22.10
20092;BMP180;10205;49.678;6.560;2023-07-28T07:33:00;99227.00;;;22.10
20092;BMP180;10205;49.678;6.560;2023-07-28T07:35:27;99232.00;;;22.10
20092;BMP180;10205;49.678;6.560;2023-07-28T07:37:55;99226.00;;;22.10
20092;BMP180;10205;49.678;6.560;2023-07-28T07:40:22;99228.00;;;22.20
20092;BMP180;10205;49.678;6.560;2023-07-28T07:42:50;99230.00;;;22.20
20092;BMP180;10205;49.678;6.560;2023-07-28T07:45:18;99251.00;;;22.20
20092;BMP180;10205;49.678;6.560;2023-07-28T07:47:48;99243.00;;;22.20
20092;BMP180;10205;49.678;6.560;2023-07-28T07:50:16;99251.00;;;22.20
20092;BMP180;10205;49.678;6.560;2023-07-28T07:52:43;99250.00;;;22.20
20092;BMP180;10205;49.678;6.560;2023-07-28T07:55:10;99256.00;;;22.30
20092;BMP180;10205;49.678;6.560;2023-07-28T07:57:38;99255.00;;;22.20
20092;BMP180;10205;49.678;6.560;2023-07-28T08:00:07;99249.00;;;22.20
20092;BMP180;10205;49.678;6.560;2023-07-28T08:02:34;99253.00;;;22.20
20092;BMP180;10205;49.678;6.560;2023-07-28T08:05:04;99261.00;;;22.30
20092;BMP180;10205;49.678;6.560;2023-07-28T08:07:31;99254.00;;;22.30
20092;BMP180;10205;49.678;6.560;2023-07-28T08:09:59;99265.00;;;22.30
20092;BMP180;10205;49.678;6.560;2023-07-28T08:12:26;99256.00;;;22.30
20092;BMP180;10205;49.678;6.560;2023-07-28T08:14:54;99256.00;;;22.30
20092;BMP180;10205;49.678;6.560;2023-07-28T08:17:21;99256.00;;;22.30
20092;BMP180;10205;49.678;6.560;2023-07-28T08:19:48;99256.00;;;22.30
20092;BMP180;10205;49.678;6.560;2023-07-28T08:22:17;99257.00;;;22.40
20092;BMP180;10205;49.678;6.560;2023-07-28T08:24:44;99263.00;;;22.40
20092;BMP180;10205;49.678;6.560;2023-07-28T08:27:11;99266.00;;;22.40
20092;BMP180;10205;49.678;6.560;2023-07-28T08:29:39;99267.00;;;22.40
20092;BMP180;10205;49.678;6.560;2023-07-28T08:32:07;99265.00;;;22.40
20092;BMP180;10205;49.678;6.560;2023-07-28T08:34:35;99262.00;;;22.40
20092;BMP180;10205;49.678;6.560;2023-07-28T08:37:02;99273.00;;;22.40
20092;BMP180;10205;49.678;6.560;2023-07-28T08:39:32;99266.00;;;22.40
20092;BMP180;10205;49.678;6.560;2023-07-28T08:42:00;99255.00;;;22.50
20092;BMP180;10205;49.678;6.560;2023-07-28T08:44:31;99259.00;;;22.50
20092;BMP180;10205;49.678;6.560;2023-07-28T08:47:00;99263.00;;;22.50
20092;BMP180;10205;49.678;6.560;2023-07-28T08:49:27;99268.00;;;22.50
20092;BMP180;10205;49.678;6.560;2023-07-28T08:51:59;99268.00;;;22.50
20092;BMP180;10205;49.678;6.560;2023-07-28T08:54:27;99272.00;;;22.50
20092;BMP180;10205;49.678;6.560;2023-07-28T08:56:57;99271.00;;;22.60
20092;BMP180;10205;49.678;6.560;2023-07-28T08:59:27;99272.00;;;22.60
20092;BMP180;10205;49.678;6.560;2023-07-28T09:01:57;99272.00;;;22.60
20092;BMP180;10205;49.678;6.560;2023-07-28T09:04:25;99264.00;;;22.60
20092;BMP180;10205;49.678;6.560;2023-07-28T09:06:52;99267.00;;;22.70
20092;BMP180;10205;49.678;6.560;2023-07-28T09:09:22;99267.00;;;22.70
20092;BMP180;10205;49.678;6.560;2023-07-28T09:11:51;99267.00;;;22.70
20092;BMP180;10205;49.678;6.560;2023-07-28T09:14:22;99267.00;;;22.70
20092;BMP180;10205;49.678;6.560;2023-07-28T09:16:51;99268.00;;;22.70
20092;BMP180;10205;49.678;6.560;2023-07-28T09:19:21;99267.00;;;22.70
20092;BMP180;10205;49.678;6.560;2023-07-28T09:21:58;99253.00;;;22.80
20092;BMP180;10205;49.678;6.560;2023-07-28T09:24:32;99256.00;;;22.80
20092;BMP180;10205;49.678;6.560;2023-07-28T09:27:01;99264.00;;;22.80
20092;BMP180;10205;49.678;6.560;2023-07-28T09:29:30;99272.00;;;22.90
20092;BMP180;10205;49.678;6.560;2023-07-28T09:32:04;99276.00;;;22.90
20092;BMP180;10205;49.678;6.560;2023-07-28T09:34:31;99276.00;;;23.00
20092;BMP180;10205;49.678;6.560;2023-07-28T09:37:00;99276.00;;;23.00
20092;BMP180;10205;49.678;6.560;2023-07-28T09:39:28;99275.00;;;23.00
20092;BMP180;10205;49.678;6.560;2023-07-28T09:41:56;99282.00;;;23.00
20092;BMP180;10205;49.678;6.560;2023-07-28T09:44:26;99278.00;;;23.10
20092;BMP180;10205;49.678;6.560;2023-07-28T09:46:57;99283.00;;;23.10
20092;BMP180;10205;49.678;6.560;2023-07-28T09:49:29;99282.00;;;23.10
20092;BMP180;10205;49.678;6.560;2023-07-28T09:52:09;99287.00;;;23.10
20092;BMP180;10205;49.678;6.560;2023-07-28T09:54:40;99289.00;;;23.20
20092;BMP180;10205;49.678;6.560;2023-07-28T09:57:12;99286.00;;;23.20
20092;BMP180;10205;49.678;6.560;2023-07-28T09:59:41;99289.00;;;23.20
20092;BMP180;10205;49.678;6.560;2023-07-28T10:02:10;99282.00;;;23.20
20092;BMP180;10205;49.678;6.560;2023-07-28T10:04:38;99281.00;;;23.20
20092;BMP180;10205;49.678;6.560;2023-07-28T10:07:09;99290.00;;;23.30
20092;BMP180;10205;49.678;6.560;2023-07-28T10:09:36;99282.00;;;23.30
20092;BMP180;10205;49.678;6.560;2023-07-28T10:12:05;99292.00;;;23.40
20092;BMP180;10205;49.678;6.560;2023-07-28T10:14:36;99287.00;;;23.40
20092;BMP180;10205;49.678;6.560;2023-07-28T10:17:05;99291.00;;;23.50
20092;BMP180;10205;49.678;6.560;2023-07-28T10:19:36;99296.00;;;23.50
20092;BMP180;10205;49.678;6.560;2023-07-28T10:22:09;99292.00;;;23.50
20092;BMP180;10205;49.678;6.560;2023-07-28T10:24:56;99308.00;;;23.60
20092;BMP180;10205;49.678;6.560;2023-07-28T10:27:32;99307.00;;;23.60
20092;BMP180;10205;49.678;6.560;2023-07-28T10:30:04;99308.00;;;23.60
20092;BMP180;10205;49.678;6.560;2023-07-28T10:32:39;99307.00;;;23.70
20092;BMP180;10205;49.678;6.560;2023-07-28T10:35:09;99304.00;;;23.70
20092;BMP180;10205;49.678;6.560;2023-07-28T10:37:49;99309.00;;;23.70
20092;BMP180;10205;49.678;6.560;2023-07-28T10:40:30;99310.00;;;23.80
20092;BMP180;10205;49.678;6.560;2023-07-28T10:42:59;99304.00;;;23.80
20092;BMP180;10205;49.678;6.560;2023-07-28T10:45:28;99309.00;;;23.80
20092;BMP180;10205;49.678;6.560;2023-07-28T10:47:58;99322.00;;;23.80
20092;BMP180;10205;49.678;6.560;2023-07-28T10:50:28;99306.00;;;23.90
20092;BMP180;10205;49.678;6.560;2023-07-28T10:52:56;99306.00;;;23.90
20092;BMP180;10205;49.678;6.560;2023-07-28T10:55:26;99296.00;;;23.90
20092;BMP180;10205;49.678;6.560;2023-07-28T10:57:55;99296.00;;;23.90
20092;BMP180;10205;49.678;6.560;2023-07-28T11:00:24;99307.00;;;23.90
20092;BMP180;10205;49.678;6.560;2023-07-28T11:02:53;99297.00;;;24.00
20092;BMP180;10205;49.678;6.560;2023-07-28T11:05:23;99295.00;;;24.00
20092;BMP180;10205;49.678;6.560;2023-07-28T11:07:56;99296.00;;;24.00
20092;BMP180;10205;49.678;6.560;2023-07-28T11:10:24;99297.00;;;24.00
20092;BMP180;10205;49.678;6.560;2023-07-28T11:12:52;99288.00;;;24.10
20092;BMP180;10205;49.678;6.560;2023-07-28T11:15:20;99298.00;;;24.10
20092;BMP180;10205;49.678;6.560;2023-07-28T11:17:50;99299.00;;;24.10
20092;BMP180;10205;49.678;6.560;2023-07-28T11:20:20;99297.00;;;24.10
20092;BMP180;10205;49.678;6.560;2023-07-28T11:22:54;99297.00;;;24.20
20092;BMP180;10205;49.678;6.560;2023-07-28T11:25:23;99299.00;;;24.20
20092;BMP180;10205;49.678;6.560;2023-07-28T11:27:51;99296.00;;;24.20
20092;BMP180;10205;49.678;6.560;2023-07-28T11:30:20;99293.00;;;24.20
20092;BMP180;10205;49.678;6.560;2023-07-28T11:32:50;99295.00;;;24.20
20092;BMP180;10205;49.678;6.560;2023-07-28T11:35:19;99300.00;;;24.20
20092;BMP180;10205;49.678;6.560;2023-07-28T11:37:50;99300.00;;;24.20
20092;BMP180;10205;49.678;6.560;2023-07-28T11:40:21;99299.00;;;24.30
20092;BMP180;10205;49.678;6.560;2023-07-28T11:42:52;99293.00;;;24.30
20092;BMP180;10205;49.678;6.560;2023-07-28T11:45:21;99293.00;;;24.30
20092;BMP180;10205;49.678;6.560;2023-07-28T11:47:57;99297.00;;;24.30
20092;BMP180;10205;49.678;6.560;2023-07-28T11:50:26;99296.00;;;24.30
20092;BMP180;10205;49.678;6.560;2023-07-28T11:52:54;99306.00;;;24.30
20092;BMP180;10205;49.678;6.560;2023-07-28T11:55:23;99295.00;;;24.30
20092;BMP180;10205;49.678;6.560;2023-07-28T11:57:52;99290.00;;;24.30
20092;BMP180;10205;49.678;6.560;2023-07-28T12:00:24;99300.00;;;24.40
20092;BMP180;10205;49.678;6.560;2023-07-28T12:03:07;99298.00;;;24.40
20092;BMP180;10205;49.678;6.560;2023-07-28T12:05:36;99288.00;;;24.40
20092;BMP180;10205;49.678;6.560;2023-07-28T12:08:04;99291.00;;;24.40
20092;BMP180;10205;49.678;6.560;2023-07-28T12:10:35;99290.00;;;24.40
20092;BMP180;10205;49.678;6.560;2023-07-28T12:13:07;99297.00;;;24.40
20092;BMP180;10205;49.678;6.560;2023-07-28T12:15:41;99293.00;;;24.40
20092;BMP180;10205;49.678;6.560;2023-07-28T12:18:10;99294.00;;;24.50
20092;BMP180;10205;49.678;6.560;2023-07-28T12:20:41;99294.00;;;24.50
20092;BMP180;10205;49.678;6.560;2023-07-28T12:23:13;99305.00;;;24.50
20092;BMP180;10205;49.678;6.560;2023-07-28T12:25:43;99307.00;;;24.50
20092;BMP180;10205;49.678;6.560;2023-07-28T12:28:11;99293.00;;;24.60
20092;BMP180;10205;49.678;6.560;2023-07-28T12:30:38;99298.00;;;24.60
20092;BMP180;10205;49.678;6.560;2023-07-28T12:33:06;99296.00;;;24.60
20092;BMP180;10205;49.678;6.560;2023-07-28T12:35:34;99298.00;;;24.60
20092;BMP180;10205;49.678;6.560;2023-07-28T12:38:03;99298.00;;;24.60
20092;BMP180;10205;49.678;6.560;2023-07-28T12:40:32;99316.00;;;24.60
20092;BMP180;10205;49.678;6.560;2023-07-28T12:43:02;99310.00;;;24.60
20092;BMP180;10205;49.678;6.560;2023-07-28T12:45:30;99320.00;;;24.60
20092;BMP180;10205;49.678;6.560;2023-07-28T12:47:58;99317.00;;;24.70
20092;BMP180;10205;49.678;6.560;2023-07-28T12:50:25;99323.00;;;24.70
20092;BMP180;10205;49.678;6.560;2023-07-28T12:52:53;99320.00;;;24.70
20092;BMP180;10205;49.678;6.560;2023-07-28T12:55:21;99320.00;;;24.70
20092;BMP180;10205;49.678;6.560;2023-07-28T12:57:48;99321.00;;;24.70
20092;BMP180;10205;49.678;6.560;2023-07-28T13:00:17;99323.00;;;24.70
20092;BMP180;10205;49.678;6.560;2023-07-28T13:02:45;99317.00;;;24.80
20092;BMP180;10205;49.678;6.560;2023-07-28T13:05:13;99319.00;;;24.80
20092;BMP180;10205;49.678;6.560;2023-07-28T13:07:43;99323.00;;;24.80
20092;BMP180;10205;49.678;6.560;2023-07-28T13:10:11;99326.00;;;24.80
20092;BMP180;10205;49.678;6.560;2023-07-28T13:12:39;99320.00;;;24.80
20092;BMP180;10205;49.678;6.560;2023-07-28T13:15:07;99326.00;;;24.80
20092;BMP180;10205;49.678;6.560;2023-07-28T13:17:36;99320.00;;;24.80
20092;BMP180;10205;49.678;6.560;2023-07-28T13:20:05;99320.00;;;24.90
20092;BMP180;10205;49.678;6.560;2023-07-28T13:22:33;99324.00;;;24.90
20092;BMP180;10205;49.678;6.560;2023-07-28T13:25:00;99326.00;;;24.90
20092;BMP180;10205;49.678;6.560;2023-07-28T13:27:29;99329.00;;;24.90
20092;BMP180;10205;49.678;6.560;2023-07-28T13:29:57;99333.00;;;24.90
20092;BMP180;10205;49.678;6.560;2023-07-28T13:32:25;99336.00;;;24.90
20092;BMP180;10205;49.678;6.560;2023-07-28T13:34:54;99334.00;;;24.90
20092;BMP180;10205;49.678;6.560;2023-07-28T13:37:22;99327.00;;;24.90
20092;BMP180;10205;49.678;6.560;2023-07-28T13:39:49;99320.00;;;24.90
20092;BMP180;10205;49.678;6.560;2023-07-28T13:42:18;99323.00;;;24.90
20092;BMP180;10205;49.678;6.560;2023-07-28T13:44:45;99326.00;;;24.90
20092;BMP180;10205;49.678;6.560;2023-07-28T13:47:12;99318.00;;;24.90
20092;BMP180;10205;49.678;6.560;2023-07-28T13:49:39;99326.00;;;24.90
20092;BMP180;10205;49.678;6.560;2023-07-28T13:52:08;99326.00;;;25.00
20092;BMP180;10205;49.678;6.560;2023-07-28T13:54:36;99319.00;;;25.00
20092;BMP180;10205;49.678;6.560;2023-07-28T13:57:03;99321.00;;;25.00
20092;BMP180;10205;49.678;6.560;2023-07-28T13:59:31;99323.00;;;25.10
20092;BMP180;10205;49.678;6.560;2023-07-28T14:01:59;99326.00;;;25.20
20092;BMP180;10205;49.678;6.560;2023-07-28T14:04:26;99321.00;;;25.30
20092;BMP180;10205;49.678;6.560;2023-07-28T14:06:53;99317.00;;;25.40
20092;BMP180;10205;49.678;6.560;2023-07-28T14:09:22;99316.00;;;25.40
20092;BMP180;10205;49.678;6.560;2023-07-28T14:11:50;99311.00;;;25.50
20092;BMP180;10205;49.678;6.560;2023-07-28T14:14:18;99312.00;;;25.60
20092;BMP180;10205;49.678;6.560;2023-07-28T14:16:45;99310.00;;;25.70